Keosauqua, Iowa
Current Conditions -  °F | °C
As of 3:35 AM on Sunday 23 Nov 2014 (Local Time) from KFFL Reporting Station
Overcast Overcast  
Wind Chill: 52°   Ceiling: 700
Heat Index: 52°   Visibility: NA
Dew Point: 50°   Wind: 10mph
Humidity: 94%   Direction: 180°S
Pressure: 29.66"   Gusts: NA
Location:  40.73°N, 91.96°W
Report Text: KFFL 230935Z AUTO 18009KT OVC007 11/10 A2966 RMK AO2
Loading
Personal Weather Stations






























Interactive Weather Map New forecast layout! Learn more

10-Day Weather Forecast

Advertisements
Track Severe Weather on mobile